This is the latest recevied weather packets stored in our database for station/object N7FEQ. If no packets are shown the sender has not sent any weather packets the latest 10 day(s).
| Time | Temp. | Humidity | Pressure | Rain* | Wind** | Luminosity | Snow |
|---|---|---|---|---|---|---|---|
| 1777873465 | 10° C | 66% | 1013 hPa | 0 mm | - | - | - |
| 1777868575 | 10.56° C | 63% | 1013.5 hPa | 0 mm | - | - | - |
| 1777864285 | 11.67° C | 58% | 1012.7 hPa | 0 mm | - | - | - |
| 1777856844 | 12.22° C | 56% | 1013.1 hPa | 0 mm | - | - | - |
| 1777856223 | 12.22° C | 58% | 1013.2 hPa | 0 mm | - | - | - |
| 1777849406 | 10° C | 74% | 1013.2 hPa | 1.02 mm | - | - | - |
| 1777846308 | 16.11° C | 39% | 1012.5 hPa | 0 mm | - | - | - |
| 1777842642 | 21.67° C | 25% | 1011.1 hPa | 0 mm | - | - | - |
| 1777837753 | 21.67° C | 28% | 1012.6 hPa | 0 mm | - | - | - |
| 1777835919 | 23.89° C | 27% | 1013.1 hPa | 0 mm | - | - | - |
| 1777834663 | 22.78° C | 33% | 1013.4 hPa | 0 mm | - | - | - |
| 1777834043 | 21.67° C | 34% | 1013.5 hPa | 0 mm | - | - | - |
| 1777829699 | 17.78° C | 46% | 1014.1 hPa | 0 mm | - | - | - |
| 1777826005 | 15° C | 65% | 1014.5 hPa | 0 mm | - | - | - |
| 1777824773 | 13.89° C | 65% | 1014.6 hPa | 0 mm | - | - | - |
| 1777822944 | 12.78° C | 69% | 1014.7 hPa | 0 mm | - | - | - |
| 1777819273 | 11.11° C | 73% | 1014.7 hPa | 0 mm | - | - | - |
| 1777811252 | 10° C | 71% | 1014.5 hPa | 0 mm | - | - | - |
| 1777790786 | 10.56° C | 79% | 1016.5 hPa | 0 mm | - | - | - |
| 1777787682 | 10.56° C | 79% | 1016.8 hPa | 0 mm | - | - | - |
| 1777772830 | 12.78° C | 68% | 1015.6 hPa | 0.76 mm | - | - | - |
| 1777772220 | 12.78° C | 70% | 1015.8 hPa | 0.76 mm | - | - | - |
| 1777766717 | 18.33° C | 49% | 1015.1 hPa | 0 mm | - | - | - |
| 1777764252 | 18.89° C | 33% | 1014.5 hPa | 0 mm | - | - | - |
| 1777752486 | 21.11° C | 26% | 1016.1 hPa | 0 mm | - | - | - |
* Rain latest hour (hover to see other rain measurements)
** Current wind speed in m/s (hover to see current wind gust speed)